Time;durP1;ratioP1;P1;durP2;ratioP2;P2;SDS_P1;SDS_P2;PMS_P1;PMS_P2;Temp;Humidity;BMP_temperature;BMP_pressure;BME280_temperature;BME280_humidity;BME280_pressure;Samples;Min_cycle;Max_cycle;Signal;HPM_P1;HPM_P2
2020/12/03 00:01:20;;;;;;;38.35;19.02;;;4.80;99.90;;;;;;5026366;28;20041;-81
2020/12/03 00:03:52;;;;;;;35.53;18.02;;;4.80;99.90;;;;;;5027054;28;20049;-82
2020/12/03 00:06:21;;;;;;;37.35;19.40;;;4.80;99.90;;;;;;5026574;28;20056;-81
2020/12/03 00:08:51;;;;;;;38.53;17.88;;;4.80;99.90;;;;;;5028871;28;20057;-82
2020/12/03 00:11:17;;;;;;;40.83;19.52;;;4.80;99.90;;;;;;5026728;28;20091;-82
2020/12/03 00:13:43;;;;;;;35.88;17.88;;;4.80;99.90;;;;;;5029227;28;20041;-81
2020/12/03 00:16:33;;;;;;;38.50;18.42;;;4.80;99.90;;;;;;5015327;28;20517;-83
2020/12/03 00:19:03;;;;;;;41.80;18.90;;;4.80;99.90;;;;;;5017997;28;20164;-80
2020/12/03 00:21:50;;;;;;;37.08;18.27;;;4.80;99.90;;;;;;5018408;28;20046;-79
2020/12/03 00:24:23;;;;;;;36.40;18.58;;;4.80;99.90;;;;;;5024562;28;20049;-83
2020/12/03 00:26:50;;;;;;;36.53;18.02;;;4.80;99.90;;;;;;5025276;28;20136;-82
2020/12/03 00:29:18;;;;;;;39.88;19.25;;;4.80;99.90;;;;;;5028998;28;20095;-82
2020/12/03 00:31:46;;;;;;;37.50;17.27;;;4.80;99.90;;;;;;5015597;28;20034;-84
2020/12/03 00:34:14;;;;;;;38.05;19.67;;;4.80;99.90;;;;;;5025122;28;20407;-83
2020/12/03 00:36:40;;;;;;;43.00;18.88;;;4.80;99.90;;;;;;5013800;28;20369;-84
2020/12/03 00:39:26;;;;;;;35.27;18.53;;;4.90;99.90;;;;;;5018343;28;20053;-83
2020/12/03 00:41:54;;;;;;;43.78;18.75;;;4.80;99.90;;;;;;5026059;28;20647;-85
2020/12/03 00:44:45;;;;;;;40.15;19.92;;;4.80;99.90;;;;;;5020989;28;20045;-82
2020/12/03 00:47:11;;;;;;;43.72;19.42;;;4.80;99.90;;;;;;5029066;28;20038;-84
2020/12/03 00:49:58;;;;;;;;;;;4.80;99.90;;;;;;5016248;28;20136;-82
2020/12/03 00:52:44;;;;;;;42.13;19.90;;;4.80;99.90;;;;;;5014828;28;19943;-81
2020/12/03 00:55:30;;;;;;;39.38;18.15;;;4.80;99.90;;;;;;5023492;28;20054;-83
2020/12/03 00:57:57;;;;;;;39.97;18.88;;;4.90;99.90;;;;;;5025246;28;20045;-83
2020/12/03 01:00:44;;;;;;;36.10;17.85;;;4.90;99.90;;;;;;5022909;28;20052;-84
2020/12/03 01:03:10;;;;;;;39.83;18.75;;;4.90;99.90;;;;;;5031860;28;20049;-84
2020/12/03 01:05:57;;;;;;;42.10;19.50;;;4.90;99.90;;;;;;5027491;28;20050;-84
2020/12/03 01:08:43;;;;;;;41.97;20.25;;;4.90;99.90;;;;;;5029492;28;20090;-84
2020/12/03 01:11:32;;;;;;;45.55;19.30;;;5.00;99.90;;;;;;5021073;28;20048;-84
2020/12/03 01:14:17;;;;;;;41.40;21.83;;;4.90;99.90;;;;;;5031951;28;20052;-80
2020/12/03 01:17:11;;;;;;;46.55;19.48;;;4.90;99.90;;;;;;5018199;28;20045;-82
2020/12/03 01:19:39;;;;;;;39.97;20.40;;;4.90;99.90;;;;;;5029963;28;20033;-81
2020/12/03 01:22:06;;;;;;;39.92;19.73;;;4.90;99.90;;;;;;5034350;28;20120;-81
2020/12/03 01:24:32;;;;;;;45.53;20.92;;;4.90;99.90;;;;;;5034018;28;20391;-81
2020/12/03 01:26:58;;;;;;;44.60;21.48;;;4.90;99.90;;;;;;5018781;28;20038;-81
2020/12/03 01:29:45;;;;;;;44.95;21.58;;;4.90;99.90;;;;;;5018544;28;20042;-82
2020/12/03 01:32:11;;;;;;;41.88;23.58;;;4.90;99.90;;;;;;5033024;28;20041;-81
2020/12/03 01:34:36;;;;;;;44.72;21.23;;;4.90;99.90;;;;;;5041538;28;20034;-81
2020/12/03 01:37:02;;;;;;;46.97;19.85;;;4.90;99.90;;;;;;5028742;28;20034;-81
2020/12/03 01:39:48;;;;;;;41.05;20.50;;;4.90;99.90;;;;;;5028748;28;20073;-80
2020/12/03 01:42:14;;;;;;;43.65;24.70;;;4.90;99.90;;;;;;5033587;28;20436;-81
2020/12/03 01:45:03;;;;;;;44.67;20.87;;;5.00;99.90;;;;;;5032804;28;20042;-83
2020/12/03 01:47:37;;;;;;;41.13;20.45;;;5.00;99.90;;;;;;5021750;28;20378;-82
2020/12/03 01:50:24;;;;;;;39.78;20.88;;;5.00;99.90;;;;;;5017502;28;20065;-82
2020/12/03 01:52:50;;;;;;;43.30;22.77;;;5.00;99.90;;;;;;5032169;28;20392;-83
2020/12/03 01:55:15;;;;;;;43.15;20.98;;;5.00;99.90;;;;;;5031858;28;20046;-80
2020/12/03 01:57:47;;;;;;;41.22;20.15;;;5.00;99.90;;;;;;5018080;28;20471;-81
2020/12/03 02:00:15;;;;;;;39.92;20.85;;;5.00;99.90;;;;;;5015699;28;20049;-83
2020/12/03 02:02:52;;;;;;;43.45;20.95;;;5.00;99.90;;;;;;5042021;28;20541;-82
2020/12/03 02:05:29;;;;;;;46.35;21.60;;;5.00;99.90;;;;;;5032827;28;20119;-82
2020/12/03 02:08:15;;;;;;;41.13;21.25;;;5.00;99.90;;;;;;5030567;28;20050;-83
2020/12/03 02:11:01;;;;;;;42.67;22.45;;;5.10;99.90;;;;;;5031864;28;20395;-82
2020/12/03 02:13:27;;;;;;;39.55;20.70;;;5.10;99.90;;;;;;5032651;28;20470;-82
2020/12/03 02:15:53;;;;;;;44.63;21.13;;;5.10;99.90;;;;;;5032322;28;20061;-83
2020/12/03 02:18:19;;;;;;;40.85;20.58;;;5.10;99.90;;;;;;5036696;28;20069;-82
2020/12/03 02:20:45;;;;;;;39.35;20.00;;;5.10;99.90;;;;;;5024891;28;20080;-85
2020/12/03 02:23:16;;;;;;;40.58;20.40;;;5.10;99.90;;;;;;5020585;28;20037;-82
2020/12/03 02:25:42;;;;;;;43.95;21.15;;;5.10;99.90;;;;;;5032986;28;20033;-82
2020/12/03 02:28:08;;;;;;;;;;;5.10;99.90;;;;;;5034765;28;20041;-83
2020/12/03 02:30:34;;;;;;;42.92;20.83;;;5.10;99.90;;;;;;5033489;28;20274;-80
2020/12/03 02:33:19;;;;;;;46.38;20.48;;;5.20;99.90;;;;;;5028318;28;20060;-79
2020/12/03 02:35:45;;;;;;;43.70;21.33;;;5.10;99.90;;;;;;5017011;28;20252;-80
2020/12/03 02:38:11;;;;;;;43.42;20.67;;;5.20;99.90;;;;;;5037506;28;20033;-79
2020/12/03 02:40:58;;;;;;;46.90;23.88;;;5.20;99.90;;;;;;5026137;28;20399;-82
2020/12/03 02:43:25;;;;;;;47.47;22.58;;;5.20;99.90;;;;;;5031859;28;20034;-80
2020/12/03 02:45:51;;;;;;;40.17;20.77;;;5.20;99.90;;;;;;5032894;28;20067;-81
2020/12/03 02:48:17;;;;;;;44.65;22.88;;;5.30;99.90;;;;;;5023224;28;20037;-80
2020/12/03 02:50:44;;;;;;;45.35;22.42;;;5.20;99.90;;;;;;5025736;28;20116;-80
2020/12/03 02:53:10;;;;;;;40.63;20.77;;;5.30;99.90;;;;;;5031306;28;20038;-80
2020/12/03 02:55:36;;;;;;;42.53;21.05;;;5.30;99.90;;;;;;5021634;28;20399;-84
2020/12/03 02:58:02;;;;;;;48.05;20.75;;;5.30;99.90;;;;;;5031362;28;20042;-85
2020/12/03 03:00:27;;;;;;;47.38;22.73;;;5.30;99.90;;;;;;5032673;28;20042;-84
2020/12/03 03:02:53;;;;;;;44.65;23.45;;;5.30;99.90;;;;;;5031618;28;20117;-86
2020/12/03 03:05:19;;;;;;;50.38;23.48;;;5.30;99.90;;;;;;5031987;28;20080;-83
2020/12/03 03:07:45;;;;;;;41.35;21.13;;;5.30;99.90;;;;;;5031396;28;20068;-81
2020/12/03 03:10:14;;;;;;;45.95;22.60;;;5.30;99.90;;;;;;5030620;28;20033;-82
2020/12/03 03:12:40;;;;;;;47.25;23.63;;;5.30;99.90;;;;;;5031496;28;20041;-82
2020/12/03 03:15:25;;;;;;;44.95;21.73;;;5.40;99.90;;;;;;5028872;28;20058;-82
2020/12/03 03:17:51;;;;;;;48.22;22.63;;;5.40;99.90;;;;;;5030209;28;20048;-83
2020/12/03 03:20:37;;;;;;;49.53;22.73;;;5.30;99.90;;;;;;5026452;28;20041;-82
2020/12/03 03:23:04;;;;;;;;;;;5.40;99.90;;;;;;5031845;28;20068;-83
2020/12/03 03:25:49;;;;;;;48.03;22.30;;;5.40;99.90;;;;;;5025809;28;20290;-82
2020/12/03 03:28:35;;;;;;;48.13;24.95;;;5.40;99.90;;;;;;5028210;28;20412;-83
2020/12/03 03:31:01;;;;;;;51.33;22.40;;;5.40;99.90;;;;;;5026769;28;20042;-84
2020/12/03 03:33:27;;;;;;;48.92;23.65;;;5.40;99.90;;;;;;5029914;28;20041;-80
2020/12/03 03:35:53;;;;;;;52.47;23.88;;;5.40;99.90;;;;;;5033419;28;20083;-79
2020/12/03 03:38:18;;;;;;;47.22;22.67;;;5.40;99.90;;;;;;5019763;28;20034;-81
2020/12/03 03:41:05;;;;;;;49.42;23.50;;;5.40;99.90;;;;;;5031216;28;20041;-81
2020/12/03 03:43:51;;;;;;;46.00;22.20;;;5.40;99.90;;;;;;5026622;28;20471;-81
2020/12/03 03:46:37;;;;;;;47.88;22.38;;;5.40;99.90;;;;;;5021354;28;20484;-83
2020/12/03 03:49:02;;;;;;;50.05;23.08;;;5.40;99.90;;;;;;5020391;28;20109;-82
2020/12/03 03:51:30;;;;;;;52.33;22.80;;;5.40;99.90;;;;;;5023385;28;20042;-83
2020/12/03 03:53:56;;;;;;;46.78;22.30;;;5.40;99.90;;;;;;5023293;28;20041;-82
2020/12/03 03:56:21;;;;;;;50.55;23.63;;;5.40;99.90;;;;;;5030720;28;20116;-82
2020/12/03 03:58:47;;;;;;;48.83;21.83;;;5.40;99.90;;;;;;5031621;28;20099;-81
2020/12/03 04:01:13;;;;;;;53.42;23.92;;;5.40;99.90;;;;;;5029068;28;20546;-85
2020/12/03 04:03:39;;;;;;;47.53;23.40;;;5.40;99.90;;;;;;5031554;28;20080;-83
2020/12/03 04:06:31;;;;;;;43.00;22.25;;;5.40;99.90;;;;;;5019286;28;20124;-82
2020/12/03 04:08:57;;;;;;;53.85;22.92;;;5.40;99.90;;;;;;5029706;28;20133;-81
2020/12/03 04:11:22;;;;;;;52.95;23.70;;;5.40;99.90;;;;;;5032489;28;20045;-83
2020/12/03 04:13:48;;;;;;;46.35;23.27;;;5.40;99.90;;;;;;5031650;28;20524;-83
2020/12/03 04:16:14;;;;;;;48.88;24.67;;;5.40;99.90;;;;;;5027301;28;20091;-85
2020/12/03 04:18:59;;;;;;;50.90;23.77;;;5.40;99.90;;;;;;5030964;28;20041;-83
2020/12/03 04:21:25;;;;;;;52.65;23.08;;;5.40;99.90;;;;;;5021514;28;20112;-84
2020/12/03 04:24:11;;;;;;;51.83;23.08;;;5.40;99.90;;;;;;5042164;28;20514;-84
2020/12/03 04:26:37;;;;;;;52.05;22.70;;;5.40;99.90;;;;;;5019157;28;20069;-84
2020/12/03 04:29:22;;;;;;;54.58;23.17;;;5.40;99.90;;;;;;5026857;28;20038;-82
2020/12/03 04:32:08;;;;;;;51.13;22.15;;;5.40;99.90;;;;;;5030268;28;20457;-81
2020/12/03 04:34:34;;;;;;;50.25;22.77;;;5.40;99.90;;;;;;5026245;28;20109;-82
2020/12/03 04:36:59;;;;;;;52.28;22.15;;;5.40;99.90;;;;;;5029038;28;20061;-80
2020/12/03 04:39:25;;;;;;;52.30;23.52;;;5.40;99.90;;;;;;5024171;28;20037;-80
2020/12/03 04:41:51;;;;;;;54.97;26.10;;;5.40;99.90;;;;;;5031644;28;20038;-80
2020/12/03 04:44:21;;;;;;;;;;;5.40;99.90;;;;;;5030942;28;20045;-82
2020/12/03 04:47:26;;;;;;;49.88;22.25;;;5.40;99.90;;;;;;5021712;28;19917;-80
2020/12/03 04:49:57;;;;;;;49.13;23.33;;;5.40;99.90;;;;;;5035215;28;20065;-80
2020/12/03 04:53:05;;;;;;;55.70;25.48;;;5.40;99.90;;;;;;5028883;28;20041;-81
2020/12/03 04:55:54;;;;;;;51.60;23.55;;;5.40;99.90;;;;;;4972551;28;20480;-79
2020/12/03 04:58:41;;;;;;;45.58;23.05;;;5.40;99.90;;;;;;5022659;28;20060;-81
2020/12/03 05:01:47;;;;;;;54.05;25.52;;;5.40;99.90;;;;;;5035702;28;20116;-82
2020/12/03 05:04:44;;;;;;;51.08;24.35;;;5.40;99.90;;;;;;5030019;28;20037;-81
2020/12/03 05:07:11;;;;;;;52.95;26.42;;;5.40;99.90;;;;;;5020555;28;20042;-79
2020/12/03 05:09:59;;;;;;;55.15;25.70;;;5.40;99.90;;;;;;5035194;28;20034;-80
2020/12/03 05:12:45;;;;;;;55.47;25.70;;;5.40;99.90;;;;;;5027504;28;20095;-81
2020/12/03 05:15:32;;;;;;;64.38;26.77;;;5.30;99.90;;;;;;5026330;28;20033;-81
2020/12/03 05:18:25;;;;;;;53.78;25.15;;;5.30;99.90;;;;;;5032784;28;20029;-81
2020/12/03 05:20:53;;;;;;;61.47;27.48;;;5.30;99.90;;;;;;5034201;28;20436;-81
2020/12/03 05:23:23;;;;;;;63.05;27.75;;;5.30;99.90;;;;;;5033195;28;20037;-81
2020/12/03 05:25:52;;;;;;;55.75;26.20;;;5.30;99.90;;;;;;5025289;28;20116;-84
2020/12/03 05:28:20;;;;;;;54.85;26.67;;;5.30;99.90;;;;;;5019260;28;20036;-82
2020/12/03 05:30:50;;;;;;;63.17;28.85;;;5.30;99.90;;;;;;5034687;28;20045;-82
2020/12/03 05:33:16;;;;;;;65.18;28.55;;;5.30;99.90;;;;;;5030208;28;20033;-84
2020/12/03 05:35:42;;;;;;;59.75;28.50;;;5.30;99.90;;;;;;5029488;28;20043;-82
2020/12/03 05:38:16;;;;;;;67.80;28.45;;;6.00;99.90;;;;;;5033632;28;20040;-80
2020/12/03 05:41:05;;;;;;;60.15;28.02;;;5.30;99.90;;;;;;5019225;28;20046;-80
2020/12/03 05:43:32;;;;;;;55.85;26.67;;;5.30;99.90;;;;;;5032011;28;20044;-80
2020/12/03 05:46:00;;;;;;;60.78;27.05;;;5.30;99.90;;;;;;5032436;28;20053;-80
2020/12/03 05:48:58;;;;;;;69.40;29.00;;;5.30;99.90;;;;;;5022494;28;20042;-81
2020/12/03 05:51:43;;;;;;;56.35;28.48;;;5.30;99.90;;;;;;5023672;28;20045;-80
2020/12/03 05:54:09;;;;;;;;;;;5.30;99.90;;;;;;5033336;28;20110;-82
2020/12/03 05:56:35;;;;;;;58.03;27.40;;;5.30;99.90;;;;;;5021597;28;19917;-81
2020/12/03 05:59:30;;;;;;;62.92;29.15;;;5.30;99.90;;;;;;5026492;28;20156;-81
2020/12/03 06:02:34;;;;;;;59.50;27.98;;;5.30;99.90;;;;;;5022165;28;20080;-80
2020/12/03 06:05:39;;;;;;;61.95;30.23;;;5.30;99.90;;;;;;5024036;28;20049;-79
2020/12/03 06:08:19;;;;;;;57.47;28.02;;;5.30;99.90;;;;;;5025711;28;20041;-80
2020/12/03 06:11:02;;;;;;;57.97;28.23;;;5.30;99.90;;;;;;5027180;28;20033;-80
2020/12/03 06:13:35;;;;;;;54.58;27.90;;;5.30;99.90;;;;;;5024526;28;20060;-80
2020/12/03 06:16:40;;;;;;;55.80;28.25;;;5.30;99.90;;;;;;5022825;28;20042;-80
2020/12/03 06:19:33;;;;;;;50.55;26.02;;;5.30;99.90;;;;;;5014106;28;20038;-80
2020/12/03 06:22:31;;;;;;;56.20;27.05;;;5.30;99.90;;;;;;5031331;28;20053;-81
2020/12/03 06:25:23;;;;;;;57.03;28.02;;;5.30;99.90;;;;;;5010722;28;20501;-80
2020/12/03 06:28:07;;;;;;;46.85;25.88;;;5.50;99.90;;;;;;5027511;28;20294;-80
2020/12/03 06:30:39;;;;;;;50.40;28.58;;;5.30;99.90;;;;;;5032736;28;20434;-80
2020/12/03 06:33:14;;;;;;;52.00;25.90;;;5.40;99.90;;;;;;5025285;28;20099;-80
2020/12/03 06:36:14;;;;;;;55.67;28.65;;;5.30;99.90;;;;;;5036885;28;20364;-81
2020/12/03 06:39:18;;;;;;;58.30;29.23;;;5.30;99.90;;;;;;5032251;28;20104;-80
2020/12/03 06:42:06;;;;;;;60.83;29.73;;;5.30;99.90;;;;;;5030817;28;20037;-81
2020/12/03 06:44:53;;;;;;;54.97;28.70;;;5.30;99.90;;;;;;5030599;28;20045;-82
2020/12/03 06:47:25;;;;;;;64.97;30.75;;;5.30;99.90;;;;;;5038113;28;20435;-80
2020/12/03 06:50:17;;;;;;;64.90;31.83;;;5.30;99.90;;;;;;5039814;28;20402;-80
2020/12/03 06:53:30;;;;;;;64.93;30.75;;;5.30;99.90;;;;;;5030406;28;20133;-80
2020/12/03 06:56:09;;;;;;;56.78;31.02;;;5.30;99.90;;;;;;5032273;28;20045;-81
2020/12/03 06:59:07;;;;;;;66.47;30.60;;;5.30;99.90;;;;;;5033538;28;20067;-82
2020/12/03 07:01:51;;;;;;;63.33;30.88;;;5.30;99.90;;;;;;5031238;28;20048;-82
2020/12/03 07:04:22;;;;;;;55.45;30.90;;;5.20;99.90;;;;;;5033828;28;20176;-81
2020/12/03 07:07:20;;;;;;;61.85;31.02;;;5.30;99.90;;;;;;5029630;28;20045;-82
2020/12/03 07:10:24;;;;;;;69.95;33.45;;;5.20;99.90;;;;;;5022608;28;20049;-82
2020/12/03 07:13:38;;;;;;;70.15;32.83;;;5.20;99.90;;;;;;5020599;28;20128;-82
2020/12/03 07:16:43;;;;;;;56.25;29.23;;;5.20;99.90;;;;;;5005574;28;20055;-82
2020/12/03 07:20:14;;;;;;;70.07;32.25;;;5.20;99.90;;;;;;5024758;28;20462;-82
2020/12/03 07:23:23;;;;;;;61.30;29.95;;;5.20;99.90;;;;;;5002383;28;20084;-82
2020/12/03 07:25:49;;;;;;;60.75;31.95;;;5.20;99.90;;;;;;5022811;28;20048;-82
2020/12/03 07:28:37;;;;;;;58.30;30.38;;;5.10;99.90;;;;;;5026190;28;20045;-82
2020/12/03 07:31:34;;;;;;;56.95;29.77;;;5.20;99.90;;;;;;5030471;28;20484;-82
2020/12/03 07:34:10;;;;;;;56.88;28.80;;;5.20;99.90;;;;;;5026847;28;20037;-82
2020/12/03 07:36:44;;;;;;;53.05;29.33;;;5.20;99.90;;;;;;5030204;28;20069;-84
2020/12/03 07:39:20;;;;;;;56.55;30.63;;;5.20;99.90;;;;;;5030603;28;20457;-81
2020/12/03 07:41:59;;;;;;;59.88;29.63;;;5.20;99.90;;;;;;5021800;28;20065;-82
2020/12/03 07:44:26;;;;;;;51.45;28.52;;;5.20;99.90;;;;;;5025025;28;20042;-81
2020/12/03 07:46:54;;;;;;;52.75;30.05;;;5.30;99.90;;;;;;5028441;28;20512;-80
2020/12/03 07:49:41;;;;;;;51.38;29.63;;;5.20;99.90;;;;;;5016542;28;20056;-80
2020/12/03 07:52:31;;;;;;;51.28;29.55;;;5.40;99.90;;;;;;5020204;28;20391;-83
2020/12/03 07:55:22;;;;;;;55.33;30.20;;;5.30;99.90;;;;;;5025330;28;20121;-83
2020/12/03 07:58:02;;;;;;;52.45;30.85;;;5.30;99.90;;;;;;5027028;28;20132;-81
2020/12/03 08:00:30;;;;;;;56.25;31.50;;;5.30;99.90;;;;;;5028519;28;20388;-80
2020/12/03 08:03:42;;;;;;;54.10;31.83;;;5.30;99.90;;;;;;5016738;28;20582;-81
2020/12/03 08:06:16;;;;;;;59.45;31.15;;;5.30;99.90;;;;;;5027343;28;20080;-82
2020/12/03 08:09:16;;;;;;;61.40;34.67;;;5.30;99.90;;;;;;5028853;28;20037;-82
2020/12/03 08:11:57;;;;;;;60.20;31.63;;;5.30;99.90;;;;;;5020026;28;20490;-83
2020/12/03 08:14:53;;;;;;;55.05;31.45;;;5.30;99.90;;;;;;5028284;28;20495;-81
2020/12/03 08:17:21;;;;;;;58.47;32.33;;;5.30;99.90;;;;;;5027938;28;20041;-81
2020/12/03 08:20:07;;;;;;;64.63;33.78;;;5.30;99.90;;;;;;5021653;28;20128;-80
2020/12/03 08:22:54;;;;;;;63.85;31.77;;;5.30;99.90;;;;;;5018598;28;20107;-83
2020/12/03 08:25:25;;;;;;;61.08;32.95;;;5.30;99.90;;;;;;5032825;28;20395;-81
2020/12/03 08:27:52;;;;;;;63.50;33.88;;;5.30;99.90;;;;;;5032234;28;20040;-81
2020/12/03 08:30:47;;;;;;;66.05;34.85;;;5.30;99.90;;;;;;5024579;28;20034;-82
2020/12/03 08:33:18;;;;;;;64.13;33.83;;;5.30;99.90;;;;;;5028937;28;20044;-82
2020/12/03 08:36:06;;;;;;;65.00;32.65;;;5.30;99.90;;;;;;5028360;28;20045;-81
2020/12/03 08:38:41;;;;;;;62.60;35.00;;;5.30;99.90;;;;;;5026396;28;20087;-82
2020/12/03 08:41:11;;;;;;;65.32;33.80;;;5.30;99.90;;;;;;5019235;28;20089;-82
2020/12/03 08:44:03;;;;;;;64.80;34.30;;;5.30;99.90;;;;;;5009986;28;20099;-82
2020/12/03 08:46:33;;;;;;;60.58;33.97;;;5.30;99.90;;;;;;5013229;28;20437;-83
2020/12/03 08:49:00;;;;;;;59.45;28.70;;;5.40;99.90;;;;;;5017437;28;20434;-81
2020/12/03 08:51:50;;;;;;;56.05;29.42;;;5.40;99.90;;;;;;5029119;28;20041;-81
2020/12/03 08:54:36;;;;;;;63.20;30.67;;;5.40;99.90;;;;;;5026981;28;20414;-83
2020/12/03 08:57:23;;;;;;;62.72;30.23;;;5.40;99.90;;;;;;5027863;28;20048;-82
2020/12/03 08:59:54;;;;;;;65.47;29.33;;;5.30;99.90;;;;;;5028956;28;20460;-81
2020/12/03 09:02:41;;;;;;;57.50;29.10;;;5.30;99.90;;;;;;5031960;28;20041;-81
2020/12/03 09:05:27;;;;;;;56.50;28.30;;;5.40;99.90;;;;;;5032671;28;20049;-80
2020/12/03 09:07:57;;;;;;;;;;;5.30;99.90;;;;;;5035069;28;20030;-80
2020/12/03 09:10:44;;;;;;;56.33;27.65;;;5.30;99.90;;;;;;5030968;28;19917;-82
2020/12/03 09:13:10;;;;;;;56.45;28.90;;;5.30;99.90;;;;;;5030311;28;20049;-82
2020/12/03 09:15:37;;;;;;;50.55;27.67;;;5.30;99.90;;;;;;5045723;28;20124;-82
2020/12/03 09:18:05;;;;;;;54.08;28.23;;;5.40;99.90;;;;;;5025962;28;20029;-82
2020/12/03 09:20:31;;;;;;;58.53;30.42;;;5.40;99.90;;;;;;5031117;28;20040;-82
2020/12/03 09:22:57;;;;;;;55.50;28.92;;;5.40;99.90;;;;;;5012397;28;20458;-83
2020/12/03 09:25:23;;;;;;;53.05;31.23;;;5.50;99.90;;;;;;5018043;28;20060;-81
2020/12/03 09:27:49;;;;;;;53.30;26.60;;;5.40;99.90;;;;;;5015032;28;20041;-82
2020/12/03 09:30:26;;;;;;;51.17;26.77;;;5.50;99.90;;;;;;5025087;28;20061;-82
2020/12/03 09:33:00;;;;;;;47.72;25.55;;;5.50;99.90;;;;;;5032481;28;20051;-81
2020/12/03 09:35:29;;;;;;;53.80;26.63;;;5.50;99.90;;;;;;5047380;28;20124;-82
2020/12/03 09:38:00;;;;;;;51.05;27.05;;;5.50;99.90;;;;;;5031176;28;20041;-82
2020/12/03 09:40:28;;;;;;;47.25;26.05;;;5.50;99.90;;;;;;5013881;28;20030;-82
2020/12/03 09:42:55;;;;;;;48.88;24.15;;;5.50;99.90;;;;;;5024148;28;20037;-82
2020/12/03 09:45:34;;;;;;;54.30;26.33;;;5.50;99.90;;;;;;5025012;28;20084;-82
2020/12/03 09:48:04;;;;;;;48.63;25.65;;;5.60;99.90;;;;;;5038678;28;20038;-82
2020/12/03 09:50:30;;;;;;;48.83;25.88;;;5.60;99.90;;;;;;5021964;28;20369;-82
2020/12/03 09:52:56;;;;;;;51.70;26.58;;;5.60;99.90;;;;;;5028389;28;20112;-82
2020/12/03 09:55:22;;;;;;;;;;;5.60;99.90;;;;;;5031305;28;20041;-83
2020/12/03 09:57:56;;;;;;;48.53;23.85;;;5.60;99.90;;;;;;5028783;28;19924;-82
2020/12/03 10:00:30;;;;;;;47.20;24.85;;;5.60;99.90;;;;;;5023699;28;20120;-82
2020/12/03 10:03:26;;;;;;;48.03;25.13;;;5.60;99.90;;;;;;5024221;28;20100;-82
2020/12/03 10:06:11;;;;;;;47.95;24.25;;;5.60;99.90;;;;;;5031273;28;20120;-82
2020/12/03 10:09:03;;;;;;;48.78;25.27;;;5.60;99.90;;;;;;5026659;28;20030;-82
2020/12/03 10:12:36;;;;;;;45.78;25.35;;;5.70;99.90;;;;;;5018460;28;20044;-81
2020/12/03 10:15:11;;;;;;;47.78;24.10;;;5.70;99.90;;;;;;5041816;28;20398;-82
2020/12/03 10:17:50;;;;;;;48.22;24.90;;;5.70;99.90;;;;;;5032472;28;20037;-82
2020/12/03 10:20:20;;;;;;;47.83;23.98;;;5.80;99.90;;;;;;5034150;28;20078;-82
2020/12/03 10:23:16;;;;;;;46.08;25.55;;;5.80;99.90;;;;;;5033798;28;20045;-82
2020/12/03 10:25:53;;;;;;;46.90;23.77;;;5.80;99.90;;;;;;5023345;28;20037;-82
2020/12/03 10:28:35;;;;;;;44.78;23.27;;;5.80;99.90;;;;;;5013227;28;20226;-82
2020/12/03 10:31:21;;;;;;;45.22;23.08;;;5.80;99.90;;;;;;5028959;28;20129;-82
2020/12/03 10:33:49;;;;;;;37.78;21.05;;;5.90;99.90;;;;;;5032866;28;20120;-82
2020/12/03 10:37:03;;;;;;;42.35;22.98;;;5.90;99.90;;;;;;5026756;28;20049;-82
2020/12/03 10:39:58;;;;;;;42.25;22.45;;;5.80;99.90;;;;;;5024447;28;20140;-82
2020/12/03 10:42:37;;;;;;;40.78;21.67;;;6.00;99.90;;;;;;5032128;28;20371;-82
2020/12/03 10:45:16;;;;;;;40.70;21.63;;;5.80;99.90;;;;;;5033587;28;20067;-82
2020/12/03 10:48:18;;;;;;;43.30;21.67;;;5.80;99.90;;;;;;5020661;28;20124;-82
2020/12/03 10:50:46;;;;;;;38.30;21.20;;;5.80;99.90;;;;;;5032019;28;20045;-82
2020/12/03 10:53:35;;;;;;;42.70;20.90;;;5.80;99.90;;;;;;5024169;28;20087;-81
2020/12/03 10:56:34;;;;;;;38.17;20.35;;;5.80;99.90;;;;;;5020005;28;20067;-81
2020/12/03 10:59:12;;;;;;;38.92;19.92;;;5.80;99.90;;;;;;5027958;28;20037;-81
2020/12/03 11:02:00;;;;;;;37.03;18.65;;;5.70;99.90;;;;;;5014782;28;20057;-81
2020/12/03 11:04:27;;;;;;;42.13;19.85;;;5.70;99.90;;;;;;5019717;28;20092;-82
2020/12/03 11:06:54;;;;;;;38.03;18.73;;;5.70;99.90;;;;;;5031301;28;20474;-82
2020/12/03 11:09:41;;;;;;;;;;;5.70;99.90;;;;;;5030662;28;20041;-82
2020/12/03 11:12:11;;;;;;;33.22;17.65;;;5.70;99.90;;;;;;5030662;28;19942;-82
2020/12/03 11:15:05;;;;;;;32.83;16.50;;;5.70;99.90;;;;;;5012805;28;20101;-82
2020/12/03 11:17:30;;;;;;;31.95;17.15;;;5.70;99.90;;;;;;5023675;28;20387;-81
2020/12/03 11:20:03;;;;;;;31.77;17.17;;;5.70;99.90;;;;;;5030346;28;20474;-82
2020/12/03 11:22:59;;;;;;;30.90;16.77;;;5.70;99.90;;;;;;5038579;28;20103;-83
2020/12/03 11:25:27;;;;;;;29.50;16.55;;;5.70;99.90;;;;;;5030907;28;20038;-82
2020/12/03 11:28:03;;;;;;;29.27;16.38;;;5.70;99.90;;;;;;5032280;28;20045;-82
2020/12/03 11:30:31;;;;;;;31.80;16.83;;;5.70;99.90;;;;;;5031392;28;20036;-82
2020/12/03 11:32:57;;;;;;;30.08;14.23;;;5.70;99.90;;;;;;5026552;28;20048;-82
2020/12/03 11:35:43;;;;;;;31.52;15.02;;;5.80;99.90;;;;;;5019603;28;20046;-83
2020/12/03 11:38:14;;;;;;;32.65;15.88;;;5.80;99.90;;;;;;5028178;28;20047;-82
2020/12/03 11:40:48;;;;;;;26.60;14.48;;;5.90;99.90;;;;;;5032293;28;20486;-80
2020/12/03 11:48:57;;;;;;;24.35;12.75;;;6.00;99.90;;;;;;5031464;28;20064;-81
2020/12/03 11:51:33;;;;;;;25.30;12.73;;;6.00;99.90;;;;;;5028891;28;20040;-82
2020/12/03 11:54:27;;;;;;;23.70;13.10;;;6.00;99.90;;;;;;5007916;28;20049;-81
2020/12/03 11:56:57;;;;;;;24.98;14.40;;;5.90;99.90;;;;;;5015389;28;20040;-82
2020/12/03 11:59:35;;;;;;;29.35;15.32;;;5.90;99.90;;;;;;5017827;28;20116;-83
2020/12/03 12:02:02;;;;;;;;;;;5.90;99.90;;;;;;5028571;28;20124;-81
2020/12/03 12:07:51;;;;;;;28.63;14.75;;;5.80;99.90;;;;;;5009777;28;20105;-82
2020/12/03 12:10:28;;;;;;;29.05;14.90;;;5.70;99.90;;;;;;5024192;28;20041;-82
2020/12/03 12:12:54;;;;;;;;;;;5.70;99.90;;;;;;5044369;28;20041;-82
2020/12/03 12:15:19;;;;;;;27.65;15.27;;;5.70;99.90;;;;;;5030007;28;20015;-82
2020/12/03 12:17:45;;;;;;;26.55;16.15;;;5.60;99.90;;;;;;5028987;28;20061;-81
2020/12/03 12:20:13;;;;;;;26.98;14.50;;;5.60;99.90;;;;;;5029347;28;20566;-81
2020/12/03 12:22:59;;;;;;;23.33;14.50;;;5.70;99.90;;;;;;5030196;28;20103;-81
2020/12/03 12:25:44;;;;;;;29.55;14.88;;;5.70;99.90;;;;;;5019932;28;20045;-81
2020/12/03 12:28:30;;;;;;;23.60;14.27;;;5.70;99.90;;;;;;5029097;28;20111;-81
2020/12/03 12:30:56;;;;;;;32.47;14.88;;;5.70;99.90;;;;;;5026305;28;20476;-82
2020/12/03 12:33:22;;;;;;;29.65;14.60;;;5.70;99.90;;;;;;5020959;28;20045;-82
2020/12/03 12:35:48;;;;;;;25.33;14.32;;;5.70;99.90;;;;;;5030529;28;20033;-82
2020/12/03 12:38:42;;;;;;;27.30;13.45;;;5.70;99.90;;;;;;5015597;28;20049;-81
2020/12/03 12:41:08;;;;;;;22.77;13.68;;;5.70;99.90;;;;;;5021287;28;20438;-82
2020/12/03 12:43:34;;;;;;;21.25;13.07;;;5.70;99.90;;;;;;5029997;28;20045;-81
2020/12/03 12:46:25;;;;;;;24.98;14.30;;;5.70;99.90;;;;;;5026917;28;20085;-81
2020/12/03 12:48:51;;;;;;;22.05;12.70;;;5.70;99.90;;;;;;5026225;28;20059;-81
2020/12/03 12:51:18;;;;;;;24.08;14.35;;;5.70;99.90;;;;;;5024412;28;20037;-81
2020/12/03 12:54:04;;;;;;;24.88;13.77;;;5.70;99.90;;;;;;5033812;28;20049;-81
2020/12/03 12:56:30;;;;;;;17.90;11.52;;;5.70;99.90;;;;;;5038819;28;20042;-81
2020/12/03 12:58:56;;;;;;;16.95;10.38;;;5.60;99.90;;;;;;5025240;28;20033;-81
2020/12/03 13:01:23;;;;;;;21.00;11.00;;;5.70;99.90;;;;;;5023958;28;20550;-81
2020/12/03 13:03:50;;;;;;;19.88;11.40;;;5.70;99.90;;;;;;5020085;28;20117;-81
2020/12/03 13:06:16;;;;;;;20.00;11.35;;;5.70;99.90;;;;;;5027167;28;20172;-81
2020/12/03 13:08:43;;;;;;;16.83;10.73;;;5.70;99.90;;;;;;5032197;28;20045;-82
2020/12/03 13:11:09;;;;;;;16.60;9.68;;;5.70;99.90;;;;;;5020176;28;20440;-81
2020/12/03 13:13:36;;;;;;;17.27;10.40;;;5.70;99.80;;;;;;5033554;28;20398;-82
2020/12/03 13:16:03;;;;;;;15.00;9.57;;;5.70;99.80;;;;;;5041006;28;20038;-81
2020/12/03 13:18:30;;;;;;;18.20;10.55;;;5.70;99.80;;;;;;5031009;28;20120;-81
2020/12/03 13:20:55;;;;;;;16.27;9.98;;;5.70;99.80;;;;;;5029740;28;20080;-81
2020/12/03 13:23:21;;;;;;;14.43;8.63;;;5.70;99.70;;;;;;5018611;28;20046;-80
2020/12/03 13:26:12;;;;;;;19.67;10.95;;;5.70;99.70;;;;;;5015782;28;20491;-82
2020/12/03 13:28:38;;;;;;;18.92;13.20;;;5.60;99.70;;;;;;5032728;28;20466;-80
2020/12/03 13:31:04;;;;;;;22.20;13.77;;;5.60;99.80;;;;;;5034012;28;20037;-79
2020/12/03 13:33:30;;;;;;;23.38;11.80;;;5.60;99.60;;;;;;5025502;28;20057;-79
2020/12/03 13:36:18;;;;;;;21.10;12.30;;;5.60;99.70;;;;;;5032322;28;20045;-80
2020/12/03 13:38:46;;;;;;;17.73;11.82;;;5.50;99.70;;;;;;5015627;28;20500;-80
2020/12/03 13:41:32;;;;;;;15.38;10.60;;;5.50;99.80;;;;;;5024758;28;20041;-81